Flight Track Log - Related Links

Times and Time Zones

All times are in EDT time to prevent confusion due to time zone crossing. See the N24BE flight status page for this flight to view local times or setup timezone preferences in your user account.

Time Position Orientation Groundspeed Altitude Reporting Facility
EDT Latitude Longitude Course Direction KTS MPH feet Rate Location/Type
Fri 10:46:08 AM 30.3281 -87.7078 334° Northwest 127 146 2,400  Level Jacksonville Center
Fri 10:46:38 AM 30.3425 -87.7158 334° Northwest 126 145 2,900 913 Climbing Houston Center
Fri 10:47:40 AM 30.3664 -87.7442 314° West 125 144 3,800 581 Climbing Houston Center
Fri 10:48:42 AM 30.3883 -87.7733 311° West 122 140 4,100 145 Climbing Houston Center
Fri 10:49:44 AM 30.4167 -87.8081 313° West 133 153 4,100  Level Houston Center
Fri 10:50:46 AM 30.4478 -87.8442 315° West 147 169 4,100  Level Houston Center
Fri 10:51:49 AM 30.4772 -87.8806 313° West 153 176 4,100  Level Houston Center
Fri 10:52:51 AM 30.5119 -87.9244 313° West 153 176 4,100  Level Houston Center
Fri 10:53:53 AM 30.5433 -87.9606 315° West 156 180 4,100  Level Houston Center
Fri 10:54:55 AM 30.5733 -87.9942 316° Northwest 154 177 4,100  Level Houston Center
Fri 10:55:57 AM 30.6067 -88.0275 319° Northwest 155 178 4,100  Level Houston Center
Fri 10:56:59 AM 30.6378 -88.0608 317° Northwest 154 177 4,100  Level Houston Center
Fri 10:58:01 AM 30.6694 -88.0947 317° Northwest 154 177 4,100  Level Houston Center
Fri 10:59:03 AM 30.7069 -88.1356 317° Northwest 154 177 4,100  Level Houston Center
Fri 11:00:06 AM 30.7383 -88.1708 316° Northwest 155 178 4,100  Level Houston Center
Fri 11:01:08 AM 30.7694 -88.2050 317° Northwest 155 178 4,100  Level Houston Center
Fri 11:02:10 AM 30.8000 -88.2397 316° Northwest 154 177 4,100  Level Houston Center
Fri 11:03:12 AM 30.8347 -88.2658 327° Northwest 157 181 4,100  Level Houston Center
Fri 11:04:14 AM 30.8767 -88.2764 348° North 155 178 4,100  Level Houston Center
Fri 11:05:16 AM 30.9253 -88.2936 343° North 153 176 4,100  Level Houston Center
Fri 11:06:18 AM 30.9658 -88.3089 342° North 152 175 4,100  Level Houston Center
Fri 11:07:20 AM 31.0067 -88.3231 343° North 151 174 4,100  Level Houston Center
Fri 11:08:23 AM 31.0472 -88.3386 342° North 151 174 4,100  Level Houston Center
Fri 11:09:25 AM 31.0881 -88.3528 343° North 151 174 4,100  Level Houston Center
Fri 11:10:27 AM 31.1283 -88.3672 343° North 151 174 4,100  Level Houston Center
Fri 11:11:29 AM 31.1683 -88.3828 342° North 150 173 4,100  Level Houston Center
Fri 11:12:31 AM 31.2083 -88.3944 346° North 149 171 4,100  Level Houston Center
Fri 11:13:33 AM 31.2508 -88.4203 333° Northwest 149 171 4,100  Level Houston Center
Fri 11:14:35 AM 31.2778 -88.4592 309° West 153 176 4,100  Level Houston Center
Fri 11:15:37 AM 31.3039 -88.4972 309° West 153 176 4,100  Level Houston Center
Fri 11:16:40 AM 31.3297 -88.5342 309° West 149 171 4,100  Level Houston Center
Fri 11:17:17 AM 31.3456 -88.5575 308° West 150 173 4,100  Level Houston Center
Fri 11:17:42 AM 31.3564 -88.5728 310° West 150 173 4,100  Level Houston Center
Fri 11:18:44 AM 31.3889 -88.6178 310° West 151 174 4,100 -48 Level Houston Center
Fri 11:19:46 AM 31.4172 -88.6539 313° West 151 174 4,000 -48 Descending Houston Center
Fri 11:20:48 AM 31.4450 -88.6903 312° West 151 174 4,000  Level Houston Center
Fri 11:21:50 AM 31.4722 -88.7278 310° West 150 173 4,000  Level Houston Center
Fri 11:22:52 AM 31.5000 -88.7642 312° West 150 173 4,000  Level Houston Center
Fri 11:23:55 AM 31.5281 -88.8003 312° West 150 173 4,000  Level Houston Center
Fri 11:24:57 AM 31.5594 -88.8467 308° West 150 173 4,000  Level Houston Center
Fri 11:25:59 AM 31.5831 -88.8839 307° West 147 169 4,000  Level Houston Center
Fri 11:27:01 AM 31.6086 -88.9231 307° West 148 170 4,000  Level Houston Center
Fri 11:28:03 AM 31.6347 -88.9617 308° West 150 173 4,000  Level Houston Center
Fri 11:29:05 AM 31.6600 -89.0008 307° West 151 174 4,000  Level Houston Center
Fri 11:29:55 AM 31.6814 -89.0311 310° West 151 174 4,000  Level Houston Center
Fri 11:30:57 AM 31.7150 -89.0769 311° West 152 175 4,000  Level Houston Center
Fri 11:31:59 AM 31.7419 -89.1158 309° West 154 177 4,000  Level Houston Center
Fri 11:33:01 AM 31.7681 -89.1536 309° West 152 175 4,000  Level Houston Center
Fri 11:34:03 AM 31.7956 -89.1903 311° West 151 174 4,000 48 Level Houston Center
Fri 11:35:06 AM 31.8225 -89.2275 310° West 150 173 4,100 48 Climbing Houston Center
Fri 11:36:08 AM 31.8547 -89.2725 310° West 150 173 4,100  Level Houston Center
Fri 11:37:10 AM 31.8844 -89.3053 317° Northwest 158 182 4,100  Level Memphis Center
Fri 11:38:10 AM 31.9142 -89.3467 310° West 158 182 4,100  Level Memphis Center
Fri 11:39:10 AM 31.9436 -89.3806 316° Northwest 158 182 4,100  Level Memphis Center
Fri 11:40:10 AM 31.9711 -89.4194 310° West 158 182 4,100  Level Memphis Center
Fri 11:41:10 AM 31.9964 -89.4583 307° West 158 182 4,100  Level Memphis Center
Fri 11:42:10 AM 32.0239 -89.4972 310° West 158 182 4,100  Level Memphis Center
Fri 11:43:10 AM 32.0511 -89.5361 310° West 158 182 4,100  Level Memphis Center
Fri 11:44:10 AM 32.0764 -89.5728 309° West 153 176 4,100  Level Memphis Center
Fri 11:45:10 AM 32.1039 -89.6119 310° West 153 176 4,100  Level Memphis Center
Fri 11:46:10 AM 32.1292 -89.6508 308° West 153 176 4,100 -100 Level Memphis Center
Fri 11:47:10 AM 32.1567 -89.6922 308° West 153 176 3,900 -300 Descending Memphis Center
Fri 11:48:10 AM 32.1819 -89.7364 304° West 158 182 3,500 -400 Descending Memphis Center
Fri 11:49:10 AM 32.2072 -89.7781 306° West 158 182 3,100 -200 Descending Memphis Center
Fri 11:50:10 AM 32.2344 -89.8194 308° West 158 182 3,100  Level Memphis Center
Fri 11:51:10 AM 32.2597 -89.8586 307° West 158 182 3,100  Level Memphis Center
Fri 11:52:10 AM 32.2847 -89.9003 305° West 153 176 3,100 -250 Level Memphis Center
Fri 11:53:10 AM 32.3122 -89.9444 306° West 153 176 2,600 -450 Descending Memphis Center
Fri 11:54:10 AM 32.3331 -89.9739 310° West 153 176 2,200 700 Descending Memphis Center
Fri 11:55:10 AM 32.3625 -90.0228 305° West 153 176 4,000 900 Climbing Memphis Center
Fri 11:56:10 AM 32.3878 -90.0669 304° West 153 176 4,000  Level Memphis Center

Login

Don't have an account? Register now (free) for customized features, flight alerts, and more!